sensor_id;sensor_type;location;lat;lon;timestamp;temperature;humidity
29547;DHT22;40782;47.264;11.330;2024-02-21T00:00:23;3.30;94.40
29547;DHT22;40782;47.264;11.330;2024-02-21T00:02:50;3.20;95.00
29547;DHT22;40782;47.264;11.330;2024-02-21T00:05:18;3.20;92.40
29547;DHT22;40782;47.264;11.330;2024-02-21T00:07:45;3.10;92.30
29547;DHT22;40782;47.264;11.330;2024-02-21T00:10:14;3.10;99.20
29547;DHT22;40782;47.264;11.330;2024-02-21T00:12:41;3.10;94.80
29547;DHT22;40782;47.264;11.330;2024-02-21T00:15:09;3.10;99.90
29547;DHT22;40782;47.264;11.330;2024-02-21T00:17:36;3.10;99.90
29547;DHT22;40782;47.264;11.330;2024-02-21T00:20:04;3.10;99.30
29547;DHT22;40782;47.264;11.330;2024-02-21T00:22:32;3.00;99.90
29547;DHT22;40782;47.264;11.330;2024-02-21T00:24:59;3.00;99.90
29547;DHT22;40782;47.264;11.330;2024-02-21T00:27:27;3.00;99.90
29547;DHT22;40782;47.264;11.330;2024-02-21T00:29:55;3.00;99.90
29547;DHT22;40782;47.264;11.330;2024-02-21T00:32:22;3.00;99.90
29547;DHT22;40782;47.264;11.330;2024-02-21T00:34:49;3.00;99.90
29547;DHT22;40782;47.264;11.330;2024-02-21T00:37:16;3.00;99.90
29547;DHT22;40782;47.264;11.330;2024-02-21T00:39:43;3.00;99.90
29547;DHT22;40782;47.264;11.330;2024-02-21T00:42:10;3.00;99.90
29547;DHT22;40782;47.264;11.330;2024-02-21T00:44:39;2.90;99.90
29547;DHT22;40782;47.264;11.330;2024-02-21T00:47:06;2.90;99.90
29547;DHT22;40782;47.264;11.330;2024-02-21T00:49:33;2.80;99.90
29547;DHT22;40782;47.264;11.330;2024-02-21T00:52:00;2.80;99.90
29547;DHT22;40782;47.264;11.330;2024-02-21T00:54:27;2.70;99.90
29547;DHT22;40782;47.264;11.330;2024-02-21T00:56:54;2.70;99.90
29547;DHT22;40782;47.264;11.330;2024-02-21T00:59:22;2.70;99.90
29547;DHT22;40782;47.264;11.330;2024-02-21T01:01:50;2.60;99.90
29547;DHT22;40782;47.264;11.330;2024-02-21T01:04:17;2.60;99.90
29547;DHT22;40782;47.264;11.330;2024-02-21T01:06:45;2.60;99.90
29547;DHT22;40782;47.264;11.330;2024-02-21T01:09:12;2.60;99.90
29547;DHT22;40782;47.264;11.330;2024-02-21T01:11:40;2.60;99.90
29547;DHT22;40782;47.264;11.330;2024-02-21T01:14:07;2.60;99.90
29547;DHT22;40782;47.264;11.330;2024-02-21T01:16:34;2.50;99.90
29547;DHT22;40782;47.264;11.330;2024-02-21T01:19:02;2.50;99.90
29547;DHT22;40782;47.264;11.330;2024-02-21T01:21:29;2.50;99.90
29547;DHT22;40782;47.264;11.330;2024-02-21T01:23:56;2.50;99.90
29547;DHT22;40782;47.264;11.330;2024-02-21T01:26:24;2.40;99.90
29547;DHT22;40782;47.264;11.330;2024-02-21T01:28:51;2.40;99.90
29547;DHT22;40782;47.264;11.330;2024-02-21T01:31:18;2.40;99.90
29547;DHT22;40782;47.264;11.330;2024-02-21T01:33:46;2.40;99.90
29547;DHT22;40782;47.264;11.330;2024-02-21T01:36:15;2.40;99.90
29547;DHT22;40782;47.264;11.330;2024-02-21T01:38:42;2.40;99.90
29547;DHT22;40782;47.264;11.330;2024-02-21T01:41:09;2.40;99.90
29547;DHT22;40782;47.264;11.330;2024-02-21T01:43:36;2.30;99.90
29547;DHT22;40782;47.264;11.330;2024-02-21T01:46:03;2.30;99.90
29547;DHT22;40782;47.264;11.330;2024-02-21T01:48:30;2.20;99.90
29547;DHT22;40782;47.264;11.330;2024-02-21T01:50:58;2.20;99.90
29547;DHT22;40782;47.264;11.330;2024-02-21T01:53:32;2.10;99.90
29547;DHT22;40782;47.264;11.330;2024-02-21T01:56:02;2.10;99.90
29547;DHT22;40782;47.264;11.330;2024-02-21T01:58:33;2.10;99.90
29547;DHT22;40782;47.264;11.330;2024-02-21T02:01:02;2.10;99.90
29547;DHT22;40782;47.264;11.330;2024-02-21T02:03:30;2.00;99.90
29547;DHT22;40782;47.264;11.330;2024-02-21T02:05:58;2.00;99.90
29547;DHT22;40782;47.264;11.330;2024-02-21T02:08:25;2.00;99.90
29547;DHT22;40782;47.264;11.330;2024-02-21T02:10:53;2.00;99.90
29547;DHT22;40782;47.264;11.330;2024-02-21T02:13:21;2.00;99.90
29547;DHT22;40782;47.264;11.330;2024-02-21T02:15:48;1.90;99.90
29547;DHT22;40782;47.264;11.330;2024-02-21T02:18:17;1.90;99.90
29547;DHT22;40782;47.264;11.330;2024-02-21T02:20:45;1.90;99.90
29547;DHT22;40782;47.264;11.330;2024-02-21T02:23:19;1.90;99.90
29547;DHT22;40782;47.264;11.330;2024-02-21T02:25:47;1.90;99.90
29547;DHT22;40782;47.264;11.330;2024-02-21T02:28:16;1.90;99.90
29547;DHT22;40782;47.264;11.330;2024-02-21T02:30:44;1.90;99.90
29547;DHT22;40782;47.264;11.330;2024-02-21T02:33:11;1.90;99.90
29547;DHT22;40782;47.264;11.330;2024-02-21T02:35:39;1.80;99.90
29547;DHT22;40782;47.264;11.330;2024-02-21T02:38:06;1.80;99.90
29547;DHT22;40782;47.264;11.330;2024-02-21T02:40:35;1.70;99.90
29547;DHT22;40782;47.264;11.330;2024-02-21T02:43:02;1.70;99.90
29547;DHT22;40782;47.264;11.330;2024-02-21T02:45:29;1.60;99.90
29547;DHT22;40782;47.264;11.330;2024-02-21T02:47:57;1.60;99.90
29547;DHT22;40782;47.264;11.330;2024-02-21T02:50:25;1.60;99.90
29547;DHT22;40782;47.264;11.330;2024-02-21T02:52:52;1.60;99.90
29547;DHT22;40782;47.264;11.330;2024-02-21T02:55:19;1.60;99.90
29547;DHT22;40782;47.264;11.330;2024-02-21T02:57:48;1.60;99.90
29547;DHT22;40782;47.264;11.330;2024-02-21T03:00:15;1.50;99.90
29547;DHT22;40782;47.264;11.330;2024-02-21T03:02:45;1.50;99.90
29547;DHT22;40782;47.264;11.330;2024-02-21T03:05:14;1.50;99.90
29547;DHT22;40782;47.264;11.330;2024-02-21T03:07:41;1.50;99.90
29547;DHT22;40782;47.264;11.330;2024-02-21T03:10:09;1.50;99.90
29547;DHT22;40782;47.264;11.330;2024-02-21T03:12:37;1.50;99.90
29547;DHT22;40782;47.264;11.330;2024-02-21T03:15:06;1.50;99.90
29547;DHT22;40782;47.264;11.330;2024-02-21T03:17:35;1.50;99.90
29547;DHT22;40782;47.264;11.330;2024-02-21T03:20:03;1.40;99.90
29547;DHT22;40782;47.264;11.330;2024-02-21T03:22:31;1.40;99.90
29547;DHT22;40782;47.264;11.330;2024-02-21T03:24:59;1.30;99.90
29547;DHT22;40782;47.264;11.330;2024-02-21T03:27:26;1.30;99.90
29547;DHT22;40782;47.264;11.330;2024-02-21T03:29:53;1.30;99.90
29547;DHT22;40782;47.264;11.330;2024-02-21T03:32:22;1.30;99.90
29547;DHT22;40782;47.264;11.330;2024-02-21T03:34:49;1.20;99.90
29547;DHT22;40782;47.264;11.330;2024-02-21T03:37:16;1.10;99.90
29547;DHT22;40782;47.264;11.330;2024-02-21T03:39:44;1.10;99.90
29547;DHT22;40782;47.264;11.330;2024-02-21T03:42:11;1.10;99.90
29547;DHT22;40782;47.264;11.330;2024-02-21T03:44:39;1.10;99.90
29547;DHT22;40782;47.264;11.330;2024-02-21T03:47:06;1.10;99.90
29547;DHT22;40782;47.264;11.330;2024-02-21T03:49:37;1.10;99.90
29547;DHT22;40782;47.264;11.330;2024-02-21T03:52:04;1.00;99.90
29547;DHT22;40782;47.264;11.330;2024-02-21T03:54:32;1.00;99.90
29547;DHT22;40782;47.264;11.330;2024-02-21T03:56:59;0.90;99.90
29547;DHT22;40782;47.264;11.330;2024-02-21T03:59:26;0.80;99.90
29547;DHT22;40782;47.264;11.330;2024-02-21T04:01:53;0.80;99.90
29547;DHT22;40782;47.264;11.330;2024-02-21T04:04:20;0.80;99.90
29547;DHT22;40782;47.264;11.330;2024-02-21T04:06:49;0.70;99.90
29547;DHT22;40782;47.264;11.330;2024-02-21T04:09:17;0.70;99.90
29547;DHT22;40782;47.264;11.330;2024-02-21T04:11:44;0.80;99.90
29547;DHT22;40782;47.264;11.330;2024-02-21T04:14:11;0.80;99.90
29547;DHT22;40782;47.264;11.330;2024-02-21T04:16:38;0.80;99.90
29547;DHT22;40782;47.264;11.330;2024-02-21T04:19:06;0.80;99.90
29547;DHT22;40782;47.264;11.330;2024-02-21T04:21:33;0.80;99.90
29547;DHT22;40782;47.264;11.330;2024-02-21T04:24:01;0.80;99.90
29547;DHT22;40782;47.264;11.330;2024-02-21T04:26:31;0.80;99.90
29547;DHT22;40782;47.264;11.330;2024-02-21T04:28:58;0.80;99.90
29547;DHT22;40782;47.264;11.330;2024-02-21T04:31:25;0.70;99.90
29547;DHT22;40782;47.264;11.330;2024-02-21T04:33:52;0.70;99.90
29547;DHT22;40782;47.264;11.330;2024-02-21T04:36:19;0.70;99.90
29547;DHT22;40782;47.264;11.330;2024-02-21T04:38:46;0.70;99.90
29547;DHT22;40782;47.264;11.330;2024-02-21T04:41:16;0.60;99.90
29547;DHT22;40782;47.264;11.330;2024-02-21T04:43:43;0.60;99.90
29547;DHT22;40782;47.264;11.330;2024-02-21T04:46:10;0.60;99.90
29547;DHT22;40782;47.264;11.330;2024-02-21T04:48:37;0.60;99.90
29547;DHT22;40782;47.264;11.330;2024-02-21T04:51:04;0.60;99.90
29547;DHT22;40782;47.264;11.330;2024-02-21T04:53:31;0.60;99.90
29547;DHT22;40782;47.264;11.330;2024-02-21T04:55:59;0.50;99.90
29547;DHT22;40782;47.264;11.330;2024-02-21T04:58:27;0.50;99.90
29547;DHT22;40782;47.264;11.330;2024-02-21T05:00:54;0.50;99.90
29547;DHT22;40782;47.264;11.330;2024-02-21T05:03:22;0.50;99.90
29547;DHT22;40782;47.264;11.330;2024-02-21T05:05:49;0.40;99.90
29547;DHT22;40782;47.264;11.330;2024-02-21T05:08:16;0.50;99.90
29547;DHT22;40782;47.264;11.330;2024-02-21T05:10:44;0.40;99.90
29547;DHT22;40782;47.264;11.330;2024-02-21T05:13:11;0.50;99.90
29547;DHT22;40782;47.264;11.330;2024-02-21T05:15:39;0.40;99.90
29547;DHT22;40782;47.264;11.330;2024-02-21T05:18:06;0.40;99.90
29547;DHT22;40782;47.264;11.330;2024-02-21T05:20:33;0.40;99.90
29547;DHT22;40782;47.264;11.330;2024-02-21T05:23:01;0.40;99.90
29547;DHT22;40782;47.264;11.330;2024-02-21T05:25:28;0.40;99.90
29547;DHT22;40782;47.264;11.330;2024-02-21T05:27:55;0.30;99.90
29547;DHT22;40782;47.264;11.330;2024-02-21T05:30:27;0.30;99.90
29547;DHT22;40782;47.264;11.330;2024-02-21T05:32:55;0.30;99.90
29547;DHT22;40782;47.264;11.330;2024-02-21T05:35:25;0.20;99.90
29547;DHT22;40782;47.264;11.330;2024-02-21T05:37:54;0.20;99.90
29547;DHT22;40782;47.264;11.330;2024-02-21T05:40:21;0.20;99.90
29547;DHT22;40782;47.264;11.330;2024-02-21T05:42:48;0.20;99.90
29547;DHT22;40782;47.264;11.330;2024-02-21T05:45:17;0.20;99.90
29547;DHT22;40782;47.264;11.330;2024-02-21T05:47:44;0.10;99.90
29547;DHT22;40782;47.264;11.330;2024-02-21T05:50:12;0.20;99.90
29547;DHT22;40782;47.264;11.330;2024-02-21T05:52:39;0.20;99.90
29547;DHT22;40782;47.264;11.330;2024-02-21T05:55:07;0.20;99.90
29547;DHT22;40782;47.264;11.330;2024-02-21T05:57:35;0.20;99.90
29547;DHT22;40782;47.264;11.330;2024-02-21T06:00:05;0.20;99.90
29547;DHT22;40782;47.264;11.330;2024-02-21T06:02:32;0.20;99.90
29547;DHT22;40782;47.264;11.330;2024-02-21T06:04:59;0.10;99.90
29547;DHT22;40782;47.264;11.330;2024-02-21T06:07:28;0.10;99.90
29547;DHT22;40782;47.264;11.330;2024-02-21T06:09:55;0.10;99.90
29547;DHT22;40782;47.264;11.330;2024-02-21T06:12:22;0.10;99.90
29547;DHT22;40782;47.264;11.330;2024-02-21T06:14:49;0.10;99.90
29547;DHT22;40782;47.264;11.330;2024-02-21T06:17:16;0.00;99.90
29547;DHT22;40782;47.264;11.330;2024-02-21T06:19:43;0.10;99.90
29547;DHT22;40782;47.264;11.330;2024-02-21T06:22:11;0.10;99.90
29547;DHT22;40782;47.264;11.330;2024-02-21T06:24:40;0.10;99.90
29547;DHT22;40782;47.264;11.330;2024-02-21T06:27:07;0.10;99.90
29547;DHT22;40782;47.264;11.330;2024-02-21T06:29:34;0.10;99.90
29547;DHT22;40782;47.264;11.330;2024-02-21T06:32:02;0.20;99.90
29547;DHT22;40782;47.264;11.330;2024-02-21T06:34:29;0.10;99.90
29547;DHT22;40782;47.264;11.330;2024-02-21T06:36:56;0.10;99.90
29547;DHT22;40782;47.264;11.330;2024-02-21T06:39:23;0.20;99.90
29547;DHT22;40782;47.264;11.330;2024-02-21T06:41:52;0.20;99.90
29547;DHT22;40782;47.264;11.330;2024-02-21T06:44:20;0.20;99.90
29547;DHT22;40782;47.264;11.330;2024-02-21T06:46:48;0.20;99.90
29547;DHT22;40782;47.264;11.330;2024-02-21T06:49:15;0.20;99.90
29547;DHT22;40782;47.264;11.330;2024-02-21T06:51:42;0.30;99.90
29547;DHT22;40782;47.264;11.330;2024-02-21T06:54:10;0.30;99.90
29547;DHT22;40782;47.264;11.330;2024-02-21T06:56:37;0.40;99.90
29547;DHT22;40782;47.264;11.330;2024-02-21T06:59:06;0.40;99.90
29547;DHT22;40782;47.264;11.330;2024-02-21T07:01:33;0.40;99.90
29547;DHT22;40782;47.264;11.330;2024-02-21T07:04:00;0.40;99.90
29547;DHT22;40782;47.264;11.330;2024-02-21T07:06:27;0.60;99.90
29547;DHT22;40782;47.264;11.330;2024-02-21T07:08:55;0.70;99.90
29547;DHT22;40782;47.264;11.330;2024-02-21T07:11:22;0.80;99.90
29547;DHT22;40782;47.264;11.330;2024-02-21T07:13:49;0.90;99.90
29547;DHT22;40782;47.264;11.330;2024-02-21T07:16:18;0.90;99.90
29547;DHT22;40782;47.264;11.330;2024-02-21T07:18:45;1.00;99.90
29547;DHT22;40782;47.264;11.330;2024-02-21T07:21:12;1.00;99.90
29547;DHT22;40782;47.264;11.330;2024-02-21T07:23:41;1.10;99.90
29547;DHT22;40782;47.264;11.330;2024-02-21T07:26:08;1.10;99.90
29547;DHT22;40782;47.264;11.330;2024-02-21T07:28:36;1.20;99.90
29547;DHT22;40782;47.264;11.330;2024-02-21T07:31:04;1.40;99.90
29547;DHT22;40782;47.264;11.330;2024-02-21T07:33:32;1.40;99.90
29547;DHT22;40782;47.264;11.330;2024-02-21T07:36:01;1.60;99.90
29547;DHT22;40782;47.264;11.330;2024-02-21T07:38:28;1.70;99.90
29547;DHT22;40782;47.264;11.330;2024-02-21T07:40:55;1.80;99.90
29547;DHT22;40782;47.264;11.330;2024-02-21T07:43:22;1.80;99.90
29547;DHT22;40782;47.264;11.330;2024-02-21T07:45:52;1.90;99.90
29547;DHT22;40782;47.264;11.330;2024-02-21T07:48:21;2.00;99.90
29547;DHT22;40782;47.264;11.330;2024-02-21T07:50:51;2.10;99.90
29547;DHT22;40782;47.264;11.330;2024-02-21T07:53:20;2.20;99.90
29547;DHT22;40782;47.264;11.330;2024-02-21T07:55:47;2.30;99.90
29547;DHT22;40782;47.264;11.330;2024-02-21T07:58:15;2.50;99.90
29547;DHT22;40782;47.264;11.330;2024-02-21T08:00:42;2.60;99.90
29547;DHT22;40782;47.264;11.330;2024-02-21T08:03:09;2.80;99.90
29547;DHT22;40782;47.264;11.330;2024-02-21T08:05:36;2.90;99.90
29547;DHT22;40782;47.264;11.330;2024-02-21T08:08:05;3.10;99.90
29547;DHT22;40782;47.264;11.330;2024-02-21T08:10:33;3.20;99.90
29547;DHT22;40782;47.264;11.330;2024-02-21T08:13:00;3.20;99.90
29547;DHT22;40782;47.264;11.330;2024-02-21T08:15:27;3.30;99.90
29547;DHT22;40782;47.264;11.330;2024-02-21T08:17:55;3.30;99.90
29547;DHT22;40782;47.264;11.330;2024-02-21T08:20:25;3.30;99.90
29547;DHT22;40782;47.264;11.330;2024-02-21T08:22:52;3.40;99.90
29547;DHT22;40782;47.264;11.330;2024-02-21T08:25:21;3.60;99.90
29547;DHT22;40782;47.264;11.330;2024-02-21T08:27:48;3.60;93.00
29547;DHT22;40782;47.264;11.330;2024-02-21T08:30:17;3.60;92.50
29547;DHT22;40782;47.264;11.330;2024-02-21T08:32:44;3.60;91.80
29547;DHT22;40782;47.264;11.330;2024-02-21T08:35:12;3.50;91.50
29547;DHT22;40782;47.264;11.330;2024-02-21T08:37:39;3.60;93.00
29547;DHT22;40782;47.264;11.330;2024-02-21T08:40:07;3.70;91.10
29547;DHT22;40782;47.264;11.330;2024-02-21T08:42:38;3.80;91.70
29547;DHT22;40782;47.264;11.330;2024-02-21T08:45:07;3.90;90.00
29547;DHT22;40782;47.264;11.330;2024-02-21T08:47:34;4.00;85.40
29547;DHT22;40782;47.264;11.330;2024-02-21T08:50:02;4.20;78.30
29547;DHT22;40782;47.264;11.330;2024-02-21T08:52:31;4.20;71.10
29547;DHT22;40782;47.264;11.330;2024-02-21T08:54:58;4.30;70.10
29547;DHT22;40782;47.264;11.330;2024-02-21T08:57:26;4.40;66.80
29547;DHT22;40782;47.264;11.330;2024-02-21T08:59:55;4.60;46.80
29547;DHT22;40782;47.264;11.330;2024-02-21T09:02:22;4.60;41.60
29547;DHT22;40782;47.264;11.330;2024-02-21T09:04:49;4.70;31.10
29547;DHT22;40782;47.264;11.330;2024-02-21T09:07:16;4.70;24.20
29547;DHT22;40782;47.264;11.330;2024-02-21T09:09:44;4.80;22.80
29547;DHT22;40782;47.264;11.330;2024-02-21T09:12:12;4.80;15.30
29547;DHT22;40782;47.264;11.330;2024-02-21T09:14:41;5.00;14.60
29547;DHT22;40782;47.264;11.330;2024-02-21T09:17:09;5.00;11.80
29547;DHT22;40782;47.264;11.330;2024-02-21T09:19:36;5.10;2.60
29547;DHT22;40782;47.264;11.330;2024-02-21T09:22:04;5.10;4.60
29547;DHT22;40782;47.264;11.330;2024-02-21T09:24:31;5.20;1.00
29547;DHT22;40782;47.264;11.330;2024-02-21T09:26:58;5.30;1.00
29547;DHT22;40782;47.264;11.330;2024-02-21T09:29:25;5.40;1.00
29547;DHT22;40782;47.264;11.330;2024-02-21T09:31:52;5.50;1.00
29547;DHT22;40782;47.264;11.330;2024-02-21T09:34:21;5.60;1.00
29547;DHT22;40782;47.264;11.330;2024-02-21T09:36:48;5.70;1.00
29547;DHT22;40782;47.264;11.330;2024-02-21T09:39:15;5.90;1.00
29547;DHT22;40782;47.264;11.330;2024-02-21T09:41:47;6.00;1.00
29547;DHT22;40782;47.264;11.330;2024-02-21T09:44:19;6.10;1.00
29547;DHT22;40782;47.264;11.330;2024-02-21T09:46:54;6.30;1.00
29547;DHT22;40782;47.264;11.330;2024-02-21T09:49:30;6.60;1.00
29547;DHT22;40782;47.264;11.330;2024-02-21T09:52:00;6.80;1.00
29547;DHT22;40782;47.264;11.330;2024-02-21T09:54:28;7.10;1.00
29547;DHT22;40782;47.264;11.330;2024-02-21T09:56:56;7.30;1.00
29547;DHT22;40782;47.264;11.330;2024-02-21T09:59:24;7.50;1.00
29547;DHT22;40782;47.264;11.330;2024-02-21T10:01:51;7.60;1.00
29547;DHT22;40782;47.264;11.330;2024-02-21T10:04:19;7.70;1.00
29547;DHT22;40782;47.264;11.330;2024-02-21T10:06:48;7.90;1.00
29547;DHT22;40782;47.264;11.330;2024-02-21T10:09:22;8.00;1.00
29547;DHT22;40782;47.264;11.330;2024-02-21T10:11:50;8.30;1.00
29547;DHT22;40782;47.264;11.330;2024-02-21T10:14:17;8.60;1.00
29547;DHT22;40782;47.264;11.330;2024-02-21T10:16:46;8.80;1.00
29547;DHT22;40782;47.264;11.330;2024-02-21T10:19:18;9.00;1.00
29547;DHT22;40782;47.264;11.330;2024-02-21T10:22:05;9.20;1.00
29547;DHT22;40782;47.264;11.330;2024-02-21T10:24:33;9.50;1.00
29547;DHT22;40782;47.264;11.330;2024-02-21T10:27:04;9.70;1.00
29547;DHT22;40782;47.264;11.330;2024-02-21T10:29:34;9.70;1.00
29547;DHT22;40782;47.264;11.330;2024-02-21T10:32:05;9.80;1.00
29547;DHT22;40782;47.264;11.330;2024-02-21T10:34:33;10.00;1.00
29547;DHT22;40782;47.264;11.330;2024-02-21T10:37:01;10.30;1.00
29547;DHT22;40782;47.264;11.330;2024-02-21T10:39:31;10.50;1.00
29547;DHT22;40782;47.264;11.330;2024-02-21T10:42:01;10.60;1.00
29547;DHT22;40782;47.264;11.330;2024-02-21T10:44:30;10.90;1.00
29547;DHT22;40782;47.264;11.330;2024-02-21T10:46:57;11.00;1.00
29547;DHT22;40782;47.264;11.330;2024-02-21T10:49:26;11.30;1.00
29547;DHT22;40782;47.264;11.330;2024-02-21T10:51:57;11.50;1.00
29547;DHT22;40782;47.264;11.330;2024-02-21T10:54:43;11.70;1.00
29547;DHT22;40782;47.264;11.330;2024-02-21T10:57:12;12.00;1.00
29547;DHT22;40782;47.264;11.330;2024-02-21T10:59:40;12.30;1.00
29547;DHT22;40782;47.264;11.330;2024-02-21T11:02:07;12.30;1.00
29547;DHT22;40782;47.264;11.330;2024-02-21T11:04:35;12.40;1.00
29547;DHT22;40782;47.264;11.330;2024-02-21T11:07:03;12.40;1.00
29547;DHT22;40782;47.264;11.330;2024-02-21T11:09:33;12.60;1.00
29547;DHT22;40782;47.264;11.330;2024-02-21T11:12:03;12.80;1.00
29547;DHT22;40782;47.264;11.330;2024-02-21T11:14:31;13.10;1.00
29547;DHT22;40782;47.264;11.330;2024-02-21T11:17:01;13.30;1.00
29547;DHT22;40782;47.264;11.330;2024-02-21T11:19:30;13.40;1.00
29547;DHT22;40782;47.264;11.330;2024-02-21T11:21:57;13.80;1.00
29547;DHT22;40782;47.264;11.330;2024-02-21T11:24:27;13.90;1.00
29547;DHT22;40782;47.264;11.330;2024-02-21T11:27:09;14.10;1.00
29547;DHT22;40782;47.264;11.330;2024-02-21T11:29:40;14.20;1.00
29547;DHT22;40782;47.264;11.330;2024-02-21T11:32:10;14.40;1.00
29547;DHT22;40782;47.264;11.330;2024-02-21T11:34:38;14.40;1.00
29547;DHT22;40782;47.264;11.330;2024-02-21T11:37:13;14.70;1.00
29547;DHT22;40782;47.264;11.330;2024-02-21T11:39:42;14.90;1.00
29547;DHT22;40782;47.264;11.330;2024-02-21T11:42:11;15.00;1.00
29547;DHT22;40782;47.264;11.330;2024-02-21T11:44:39;15.10;1.00
29547;DHT22;40782;47.264;11.330;2024-02-21T11:47:08;15.10;1.00
29547;DHT22;40782;47.264;11.330;2024-02-21T11:49:37;15.20;1.00
29547;DHT22;40782;47.264;11.330;2024-02-21T11:52:05;15.20;1.00
29547;DHT22;40782;47.264;11.330;2024-02-21T11:54:33;15.20;1.00
29547;DHT22;40782;47.264;11.330;2024-02-21T11:57:01;15.30;1.00
29547;DHT22;40782;47.264;11.330;2024-02-21T11:59:32;15.20;1.00
29547;DHT22;40782;47.264;11.330;2024-02-21T12:01:59;15.10;1.00
29547;DHT22;40782;47.264;11.330;2024-02-21T12:04:27;14.90;1.00
29547;DHT22;40782;47.264;11.330;2024-02-21T12:06:57;14.90;1.00
29547;DHT22;40782;47.264;11.330;2024-02-21T12:09:25;15.00;1.00
29547;DHT22;40782;47.264;11.330;2024-02-21T12:12:00;15.00;1.00
29547;DHT22;40782;47.264;11.330;2024-02-21T12:14:30;15.10;1.00
29547;DHT22;40782;47.264;11.330;2024-02-21T12:16:58;15.20;1.00
29547;DHT22;40782;47.264;11.330;2024-02-21T12:19:26;15.20;1.00
29547;DHT22;40782;47.264;11.330;2024-02-21T12:21:54;15.30;1.00
29547;DHT22;40782;47.264;11.330;2024-02-21T12:24:24;15.50;1.00
29547;DHT22;40782;47.264;11.330;2024-02-21T12:26:51;15.70;1.00
29547;DHT22;40782;47.264;11.330;2024-02-21T12:29:19;15.90;1.00
29547;DHT22;40782;47.264;11.330;2024-02-21T12:31:48;16.10;1.00
29547;DHT22;40782;47.264;11.330;2024-02-21T12:34:15;16.30;1.00
29547;DHT22;40782;47.264;11.330;2024-02-21T12:36:43;16.40;1.00
29547;DHT22;40782;47.264;11.330;2024-02-21T12:39:10;16.60;1.00
29547;DHT22;40782;47.264;11.330;2024-02-21T12:41:38;16.80;1.00
29547;DHT22;40782;47.264;11.330;2024-02-21T12:44:06;16.90;1.00
29547;DHT22;40782;47.264;11.330;2024-02-21T12:46:33;17.20;1.00
29547;DHT22;40782;47.264;11.330;2024-02-21T12:49:02;17.60;1.00
29547;DHT22;40782;47.264;11.330;2024-02-21T12:51:30;18.00;1.00
29547;DHT22;40782;47.264;11.330;2024-02-21T12:53:57;18.30;1.00
29547;DHT22;40782;47.264;11.330;2024-02-21T12:56:26;18.40;1.00
29547;DHT22;40782;47.264;11.330;2024-02-21T12:58:54;18.40;1.00
29547;DHT22;40782;47.264;11.330;2024-02-21T13:01:21;18.60;1.00
29547;DHT22;40782;47.264;11.330;2024-02-21T13:03:50;19.10;1.00
29547;DHT22;40782;47.264;11.330;2024-02-21T13:06:18;19.50;1.00
29547;DHT22;40782;47.264;11.330;2024-02-21T13:08:45;19.80;1.00
29547;DHT22;40782;47.264;11.330;2024-02-21T13:11:13;19.70;1.00
29547;DHT22;40782;47.264;11.330;2024-02-21T13:13:40;19.80;1.00
29547;DHT22;40782;47.264;11.330;2024-02-21T13:16:07;19.90;1.00
29547;DHT22;40782;47.264;11.330;2024-02-21T13:18:36;20.00;1.00
29547;DHT22;40782;47.264;11.330;2024-02-21T13:21:05;20.10;1.00
29547;DHT22;40782;47.264;11.330;2024-02-21T13:23:33;20.20;1.00
29547;DHT22;40782;47.264;11.330;2024-02-21T13:26:00;20.30;1.00
29547;DHT22;40782;47.264;11.330;2024-02-21T13:28:27;20.30;1.00
29547;DHT22;40782;47.264;11.330;2024-02-21T13:30:54;20.20;1.00
29547;DHT22;40782;47.264;11.330;2024-02-21T13:33:23;20.20;1.00
29547;DHT22;40782;47.264;11.330;2024-02-21T13:35:50;20.20;1.00
29547;DHT22;40782;47.264;11.330;2024-02-21T13:38:17;20.50;1.00
29547;DHT22;40782;47.264;11.330;2024-02-21T13:40:46;20.60;1.00
29547;DHT22;40782;47.264;11.330;2024-02-21T13:43:13;20.80;1.00
29547;DHT22;40782;47.264;11.330;2024-02-21T13:45:41;20.90;1.00
29547;DHT22;40782;47.264;11.330;2024-02-21T13:48:22;21.00;1.00
29547;DHT22;40782;47.264;11.330;2024-02-21T13:50:50;20.80;1.00
29547;DHT22;40782;47.264;11.330;2024-02-21T13:53:17;20.50;1.00
29547;DHT22;40782;47.264;11.330;2024-02-21T13:55:48;20.50;1.00
29547;DHT22;40782;47.264;11.330;2024-02-21T13:58:16;20.50;1.00
29547;DHT22;40782;47.264;11.330;2024-02-21T14:00:43;20.50;1.00
29547;DHT22;40782;47.264;11.330;2024-02-21T14:03:10;20.40;1.00
29547;DHT22;40782;47.264;11.330;2024-02-21T14:05:38;20.30;1.00
29547;DHT22;40782;47.264;11.330;2024-02-21T14:08:06;20.20;1.00
29547;DHT22;40782;47.264;11.330;2024-02-21T14:10:34;20.00;1.00
29547;DHT22;40782;47.264;11.330;2024-02-21T14:13:02;20.30;1.00
29547;DHT22;40782;47.264;11.330;2024-02-21T14:15:29;20.60;1.00
29547;DHT22;40782;47.264;11.330;2024-02-21T14:17:56;20.80;1.00
29547;DHT22;40782;47.264;11.330;2024-02-21T14:20:24;20.80;1.00
29547;DHT22;40782;47.264;11.330;2024-02-21T14:22:51;20.70;1.00
29547;DHT22;40782;47.264;11.330;2024-02-21T14:25:18;20.90;1.00
29547;DHT22;40782;47.264;11.330;2024-02-21T14:27:45;21.10;1.00
29547;DHT22;40782;47.264;11.330;2024-02-21T14:30:14;21.30;1.00
29547;DHT22;40782;47.264;11.330;2024-02-21T14:32:44;21.50;1.00
29547;DHT22;40782;47.264;11.330;2024-02-21T14:35:11;21.40;1.00
29547;DHT22;40782;47.264;11.330;2024-02-21T14:37:38;21.40;1.00
29547;DHT22;40782;47.264;11.330;2024-02-21T14:40:06;21.30;1.00
29547;DHT22;40782;47.264;11.330;2024-02-21T14:42:34;21.00;1.00
29547;DHT22;40782;47.264;11.330;2024-02-21T14:45:01;20.80;1.00
29547;DHT22;40782;47.264;11.330;2024-02-21T14:47:32;20.50;1.00
29547;DHT22;40782;47.264;11.330;2024-02-21T14:50:02;20.40;1.00
29547;DHT22;40782;47.264;11.330;2024-02-21T14:52:30;20.30;1.00
29547;DHT22;40782;47.264;11.330;2024-02-21T14:54:58;20.00;1.00
29547;DHT22;40782;47.264;11.330;2024-02-21T14:57:28;19.70;1.00
29547;DHT22;40782;47.264;11.330;2024-02-21T14:59:55;19.50;1.00
29547;DHT22;40782;47.264;11.330;2024-02-21T15:02:24;19.40;1.00
29547;DHT22;40782;47.264;11.330;2024-02-21T15:04:54;19.30;1.00
29547;DHT22;40782;47.264;11.330;2024-02-21T15:07:22;19.20;1.00
29547;DHT22;40782;47.264;11.330;2024-02-21T15:09:50;19.00;1.00
29547;DHT22;40782;47.264;11.330;2024-02-21T15:12:17;18.80;1.00
29547;DHT22;40782;47.264;11.330;2024-02-21T15:14:45;18.60;1.00
29547;DHT22;40782;47.264;11.330;2024-02-21T15:17:12;18.60;1.00
29547;DHT22;40782;47.264;11.330;2024-02-21T15:19:39;18.40;1.00
29547;DHT22;40782;47.264;11.330;2024-02-21T15:22:11;18.00;1.00
29547;DHT22;40782;47.264;11.330;2024-02-21T15:24:38;17.60;1.00
29547;DHT22;40782;47.264;11.330;2024-02-21T15:27:05;17.30;1.00
29547;DHT22;40782;47.264;11.330;2024-02-21T15:29:37;17.00;1.00
29547;DHT22;40782;47.264;11.330;2024-02-21T15:32:04;16.70;1.00
29547;DHT22;40782;47.264;11.330;2024-02-21T15:34:31;16.50;1.00
29547;DHT22;40782;47.264;11.330;2024-02-21T15:36:59;16.20;1.00